createdAt,value
2023-11-24T00:01:55.602Z,97162.97
2023-11-24T00:04:23.395Z,97169.53
2023-11-24T00:06:52.184Z,97162.81
2023-11-24T00:09:19.795Z,97173.91
2023-11-24T00:11:48.755Z,97161.41
2023-11-24T00:14:17.151Z,97158.75
2023-11-24T00:16:44.846Z,97156.25
2023-11-24T00:19:15.033Z,97143.56
2023-11-24T00:21:43.149Z,97139.69
2023-11-24T00:24:12.060Z,97147.13
2023-11-24T00:26:39.622Z,97162.69
2023-11-24T00:29:09.047Z,97138.56
2023-11-24T00:31:37.470Z,97135.44
2023-11-24T00:34:05.267Z,97147.94
2023-11-24T00:36:33.666Z,97133.59
2023-11-24T00:39:01.251Z,97137.72
2023-11-24T00:41:29.965Z,97119.88
2023-11-24T00:43:57.565Z,97107.34
2023-11-24T00:46:26.452Z,97100.81
2023-11-24T00:48:54.030Z,97117.56
2023-11-24T00:51:21.729Z,97119.38
2023-11-24T00:53:49.256Z,97137.38
2023-11-24T00:56:16.826Z,97116.31
2023-11-24T00:58:44.750Z,97116.34
2023-11-24T01:01:12.915Z,97112.66
2023-11-24T01:03:42.124Z,97123.34
2023-11-24T01:06:11.170Z,97110.78
2023-11-24T01:08:38.715Z,97105.25
2023-11-24T01:11:06.627Z,97096.41
2023-11-24T01:13:36.229Z,97089.09
2023-11-24T01:16:05.200Z,97102.81
2023-11-24T01:18:34.878Z,97109.88
2023-11-24T01:21:07.893Z,97121.38
2023-11-24T01:23:36.479Z,97114.59
2023-11-24T01:26:04.407Z,97101.81
2023-11-24T01:28:35.262Z,97113.41
2023-11-24T01:31:06.633Z,97106.81
2023-11-24T01:33:34.308Z,97102.69
2023-11-24T01:36:03.368Z,97104.13
2023-11-24T01:38:30.960Z,97102.09
2023-11-24T01:40:58.552Z,97086.84
2023-11-24T01:43:26.321Z,97093.84
2023-11-24T01:45:54.115Z,97083.00
2023-11-24T01:48:21.806Z,97078.13
2023-11-24T01:50:50.466Z,97089.81
2023-11-24T01:53:20.770Z,97081.38
2023-11-24T01:55:48.604Z,97097.53
2023-11-24T01:58:17.670Z,97091.56
2023-11-24T02:00:46.836Z,97061.22
2023-11-24T02:03:14.577Z,97080.50
2023-11-24T02:05:42.627Z,97075.19
2023-11-24T02:08:11.222Z,97070.41
2023-11-24T02:10:40.443Z,97084.19
2023-11-24T02:13:11.452Z,97083.75
2023-11-24T02:15:40.141Z,97080.91
2023-11-24T02:18:07.613Z,97079.28
2023-11-24T02:20:35.458Z,97074.34
2023-11-24T02:23:04.333Z,97059.16
2023-11-24T02:25:31.969Z,97047.66
2023-11-24T02:27:59.571Z,97042.97
2023-11-24T02:30:27.258Z,97054.91
2023-11-24T02:32:55.168Z,97045.44
2023-11-24T02:35:22.775Z,97048.50
2023-11-24T02:37:50.335Z,97031.72
2023-11-24T02:40:19.735Z,97024.31
2023-11-24T02:42:47.633Z,97021.66
2023-11-24T02:45:15.364Z,97015.50
2023-11-24T02:47:43.025Z,97014.66
2023-11-24T02:50:11.117Z,97021.66
2023-11-24T02:52:38.651Z,97016.16
2023-11-24T02:55:07.469Z,97001.56
2023-11-24T02:57:36.429Z,97004.72
2023-11-24T03:00:06.350Z,97018.25
2023-11-24T03:02:34.124Z,97018.28
2023-11-24T03:05:01.799Z,97008.34
2023-11-24T03:07:29.438Z,97008.97
2023-11-24T03:09:57.116Z,97072.31
2023-11-24T03:12:24.708Z,97121.03
2023-11-24T03:14:55.063Z,97116.84
2023-11-24T03:17:23.044Z,97099.97
2023-11-24T03:19:50.615Z,97097.59
2023-11-24T03:22:18.234Z,97094.38
2023-11-24T03:24:45.808Z,97084.72
2023-11-24T03:27:13.430Z,97087.50
2023-11-24T03:29:42.143Z,97085.66
2023-11-24T03:32:11.146Z,97061.16
2023-11-24T03:34:38.944Z,97069.97
2023-11-24T03:37:06.761Z,97075.56
2023-11-24T03:39:35.968Z,97064.66
2023-11-24T03:42:06.241Z,97063.34
2023-11-24T03:44:36.185Z,97059.69
2023-11-24T03:47:03.923Z,97055.38
2023-11-24T03:49:33.944Z,97046.75
2023-11-24T03:52:02.096Z,97049.50
2023-11-24T03:54:29.960Z,97045.66
2023-11-24T03:56:57.575Z,97049.78
2023-11-24T03:59:26.722Z,97050.16
2023-11-24T04:01:54.342Z,97044.75
2023-11-24T04:04:21.956Z,97022.81
2023-11-24T04:06:50.888Z,97040.88
2023-11-24T04:09:18.654Z,97022.97
2023-11-24T04:11:46.245Z,97021.41
2023-11-24T04:14:13.870Z,97037.69
2023-11-24T04:16:44.570Z,97027.19
2023-11-24T04:19:12.344Z,97033.06
2023-11-24T04:21:42.161Z,97034.00
2023-11-24T04:24:11.323Z,97027.03
2023-11-24T04:26:39.080Z,97034.75
2023-11-24T04:29:06.979Z,97025.53
2023-11-24T04:31:34.853Z,97025.09
2023-11-24T04:34:03.043Z,97019.59
2023-11-24T04:36:31.034Z,97025.38
2023-11-24T04:38:58.597Z,97035.00
2023-11-24T04:41:30.121Z,97033.06
2023-11-24T04:43:57.649Z,97022.81
2023-11-24T04:46:25.447Z,97029.25
2023-11-24T04:48:53.109Z,97030.88
2023-11-24T04:51:20.829Z,97013.81
2023-11-24T04:53:48.528Z,97008.50
2023-11-24T04:56:16.063Z,97011.44
2023-11-24T04:58:44.993Z,96992.53
2023-11-24T05:01:13.516Z,96997.03
2023-11-24T05:03:41.807Z,97001.03
2023-11-24T05:06:09.523Z,96990.72
2023-11-24T05:08:37.920Z,96968.59
2023-11-24T05:11:05.587Z,96976.47
2023-11-24T05:13:33.266Z,96984.56
2023-11-24T05:16:02.278Z,96977.97
2023-11-24T05:18:29.871Z,96977.41
2023-11-24T05:20:57.476Z,96977.75
2023-11-24T05:23:25.769Z,96982.16
2023-11-24T05:25:54.090Z,97001.88
2023-11-24T05:28:21.713Z,97000.81
2023-11-24T05:30:49.375Z,96990.94
2023-11-24T05:33:18.910Z,96980.06
2023-11-24T05:35:46.456Z,96964.63
2023-11-24T05:38:13.956Z,96959.72
2023-11-24T05:40:44.477Z,96974.53
2023-11-24T05:43:12.266Z,96982.63
2023-11-24T05:45:39.902Z,96974.53
2023-11-24T05:48:07.453Z,96967.41
2023-11-24T05:50:36.345Z,96980.44
2023-11-24T05:53:03.864Z,96985.19
2023-11-24T05:55:31.516Z,96990.94
2023-11-24T05:57:59.076Z,96989.69
2023-11-24T06:00:26.796Z,96991.63
2023-11-24T06:02:54.492Z,96987.41
2023-11-24T06:05:22.097Z,96991.84
2023-11-24T06:07:54.076Z,97000.38
2023-11-24T06:10:23.308Z,97000.81
2023-11-24T06:12:50.852Z,97007.22
2023-11-24T06:15:18.470Z,97023.31
2023-11-24T06:17:46.562Z,97017.66
2023-11-24T06:20:14.131Z,97013.94
2023-11-24T06:22:41.684Z,97015.75
2023-11-24T06:25:14.926Z,97018.50
2023-11-24T06:27:43.672Z,97007.88
2023-11-24T06:30:11.962Z,97022.34
2023-11-24T06:32:39.790Z,97029.22
2023-11-24T06:35:08.500Z,97035.53
2023-11-24T06:37:36.022Z,97043.97
2023-11-24T06:40:05.384Z,97040.22
2023-11-24T06:42:34.423Z,97041.34
2023-11-24T06:45:04.143Z,97036.31
2023-11-24T06:47:31.887Z,97038.41
2023-11-24T06:49:59.478Z,97035.41
2023-11-24T06:52:27.079Z,97036.47
2023-11-24T06:54:54.723Z,97020.53
2023-11-24T06:57:22.251Z,97022.63
2023-11-24T06:59:51.110Z,97013.44
2023-11-24T07:02:18.619Z,97014.31
2023-11-24T07:04:46.926Z,97005.03
2023-11-24T07:07:16.284Z,97011.16
2023-11-24T07:09:43.972Z,96995.84
2023-11-24T07:12:13.416Z,96986.25
2023-11-24T07:14:40.991Z,96987.16
2023-11-24T07:17:09.909Z,96989.72
2023-11-24T07:19:37.647Z,96994.84
2023-11-24T07:22:05.795Z,96996.38
2023-11-24T07:24:33.474Z,97002.34
2023-11-24T07:27:01.544Z,97001.44
2023-11-24T07:29:29.571Z,96988.06
2023-11-24T07:31:57.104Z,96991.84
2023-11-24T07:34:26.156Z,96985.03
2023-11-24T07:36:54.689Z,96987.69
2023-11-24T07:39:24.046Z,96992.81
2023-11-24T07:41:51.592Z,97002.91
2023-11-24T07:44:19.153Z,97009.44
2023-11-24T07:46:46.754Z,97014.28
2023-11-24T07:49:14.377Z,97018.16
2023-11-24T07:51:43.407Z,97008.31
2023-11-24T07:54:11.124Z,96999.41
2023-11-24T07:56:38.635Z,96987.28
2023-11-24T07:59:06.314Z,96991.53
2023-11-24T08:01:34.125Z,96984.00
2023-11-24T08:04:02.736Z,96988.28
2023-11-24T08:06:30.793Z,96984.19
2023-11-24T08:09:02.022Z,96996.75
2023-11-24T08:11:29.615Z,97004.75
2023-11-24T08:13:57.226Z,96993.16
2023-11-24T08:16:25.043Z,97009.97
2023-11-24T08:18:53.309Z,97001.44
2023-11-24T08:21:20.934Z,96991.38
2023-11-24T08:23:48.782Z,96983.44
2023-11-24T08:26:18.586Z,96980.50
2023-11-24T08:28:46.882Z,96976.56
2023-11-24T08:31:18.628Z,96967.59
2023-11-24T08:33:46.324Z,96970.25
2023-11-24T08:36:14.223Z,96960.13
2023-11-24T08:38:42.380Z,96960.41
2023-11-24T08:41:23.307Z,96953.34
2023-11-24T08:43:59.703Z,96952.25
2023-11-24T08:46:27.500Z,96954.63
2023-11-24T08:48:55.627Z,96955.19
2023-11-24T08:51:23.421Z,96934.06
2023-11-24T08:53:50.950Z,96936.84
2023-11-24T08:56:18.561Z,96943.28
2023-11-24T08:58:46.112Z,96937.28
2023-11-24T09:01:15.487Z,96939.44
2023-11-24T09:03:43.612Z,96917.59
2023-11-24T09:06:11.164Z,96923.38
2023-11-24T09:08:39.958Z,96922.81
2023-11-24T09:11:08.205Z,96931.06
2023-11-24T09:13:35.827Z,96915.00
2023-11-24T09:16:04.313Z,96928.94
2023-11-24T09:18:33.422Z,96908.13
2023-11-24T09:21:01.005Z,96901.06
2023-11-24T09:23:28.817Z,96911.66
2023-11-24T09:25:56.321Z,96910.28
2023-11-24T09:28:23.904Z,96910.53
2023-11-24T09:30:51.641Z,96896.13
2023-11-24T09:33:19.745Z,96893.25
2023-11-24T09:35:48.630Z,96890.28
2023-11-24T09:38:16.060Z,96886.53
2023-11-24T09:40:45.586Z,96878.63
2023-11-24T09:43:14.307Z,96883.28
2023-11-24T09:45:42.304Z,96882.38
2023-11-24T09:48:12.448Z,96872.31
2023-11-24T09:50:42.323Z,96864.31
2023-11-24T09:53:14.842Z,96857.28
2023-11-24T09:55:42.704Z,96866.56
2023-11-24T09:58:11.026Z,96858.91
2023-11-24T10:00:38.635Z,96855.19
2023-11-24T10:03:08.945Z,96843.47
2023-11-24T10:05:36.505Z,96830.56
2023-11-24T10:08:04.088Z,96822.34
2023-11-24T10:10:33.134Z,96831.25
2023-11-24T10:13:03.069Z,96819.63
2023-11-24T10:15:31.875Z,96798.91
2023-11-24T10:17:59.885Z,96790.75
2023-11-24T10:20:29.865Z,96774.00
2023-11-24T10:22:59.724Z,96759.53
2023-11-24T10:25:27.545Z,96770.09
2023-11-24T10:27:59.987Z,96767.44
2023-11-24T10:30:27.792Z,96767.13
2023-11-24T10:32:55.456Z,96760.41
2023-11-24T10:35:23.681Z,96762.13
2023-11-24T10:37:51.854Z,96785.06
2023-11-24T10:40:19.945Z,96769.81
2023-11-24T10:42:51.622Z,96768.84
2023-11-24T10:45:22.575Z,96765.09
2023-11-24T10:48:02.390Z,96764.19
2023-11-24T10:50:30.521Z,96741.31
2023-11-24T10:53:08.939Z,96744.88
2023-11-24T10:55:38.880Z,96737.19
2023-11-24T10:58:07.617Z,96725.16
2023-11-24T11:00:38.214Z,96714.72
2023-11-24T11:03:07.571Z,96723.91
2023-11-24T11:05:52.448Z,96709.78
2023-11-24T11:08:29.124Z,96700.81
2023-11-24T11:11:22.288Z,96700.75
2023-11-24T11:13:52.391Z,96713.44
2023-11-24T11:16:21.931Z,96704.81
2023-11-24T11:18:50.874Z,96693.84
2023-11-24T11:21:18.780Z,96689.25
2023-11-24T11:23:46.329Z,96689.47
2023-11-24T11:26:46.515Z,96686.47
2023-11-24T11:29:17.073Z,96683.59
2023-11-24T11:31:47.816Z,96676.88
2023-11-24T11:34:17.860Z,96676.34
2023-11-24T11:37:08.434Z,96679.13
2023-11-24T11:39:38.553Z,96672.00
2023-11-24T11:42:10.180Z,96661.41
2023-11-24T11:44:40.903Z,96659.84
2023-11-24T11:47:21.895Z,96654.97
2023-11-24T11:49:52.813Z,96640.03
2023-11-24T11:52:22.187Z,96638.44
2023-11-24T11:54:51.586Z,96634.34
2023-11-24T11:57:20.262Z,96633.75
2023-11-24T11:59:48.624Z,96619.19
2023-11-24T12:02:22.018Z,96628.63
2023-11-24T12:04:50.420Z,96620.78
2023-11-24T12:07:20.113Z,96626.88
2023-11-24T12:09:48.561Z,96630.88
2023-11-24T12:12:16.389Z,96634.22
2023-11-24T12:14:44.923Z,96637.53
2023-11-24T12:17:13.437Z,96646.59
2023-11-24T12:19:44.145Z,96639.91
2023-11-24T12:22:12.229Z,96632.28
2023-11-24T12:24:41.023Z,96623.38
2023-11-24T12:27:10.051Z,96618.41
2023-11-24T12:29:39.967Z,96619.16
2023-11-24T12:32:13.680Z,96612.84
2023-11-24T12:34:47.065Z,96587.72
2023-11-24T12:37:15.298Z,96574.09
2023-11-24T12:39:43.056Z,96566.09
2023-11-24T12:42:12.055Z,96568.16
2023-11-24T12:44:40.756Z,96555.47
2023-11-24T12:47:10.238Z,96546.38
2023-11-24T12:49:58.622Z,96544.88
2023-11-24T12:52:26.410Z,96540.69
2023-11-24T12:54:55.139Z,96529.94
2023-11-24T12:57:23.707Z,96528.19
2023-11-24T12:59:51.257Z,96519.41
2023-11-24T13:02:19.186Z,96518.94
2023-11-24T13:04:47.107Z,96522.75
2023-11-24T13:07:17.946Z,96528.31
2023-11-24T13:09:46.444Z,96524.00
2023-11-24T13:12:18.551Z,96523.19
2023-11-24T13:14:47.228Z,96537.03
2023-11-24T13:17:14.987Z,96531.28
2023-11-24T13:19:43.616Z,96532.72
2023-11-24T13:22:12.358Z,96527.88
2023-11-24T13:24:42.212Z,96541.22
2023-11-24T13:27:10.906Z,96538.06
2023-11-24T13:29:43.348Z,96528.75
2023-11-24T13:32:12.491Z,96533.69
2023-11-24T13:34:40.931Z,96527.91
2023-11-24T13:37:09.130Z,96517.25
2023-11-24T13:39:36.982Z,96518.59
2023-11-24T13:42:06.472Z,96503.09
2023-11-24T13:44:35.751Z,96521.69
2023-11-24T13:47:03.568Z,96515.53
2023-11-24T13:49:31.240Z,96508.41
2023-11-24T13:51:58.907Z,96508.41
2023-11-24T13:54:29.746Z,96512.00
2023-11-24T13:56:57.251Z,96505.19
2023-11-24T13:59:26.659Z,96506.34
2023-11-24T14:01:55.541Z,96499.53
2023-11-24T14:04:23.380Z,96512.59
2023-11-24T14:06:54.522Z,96517.13
2023-11-24T14:09:30.453Z,96529.50
2023-11-24T14:11:59.660Z,96540.69
2023-11-24T14:14:29.953Z,96532.72
2023-11-24T14:16:57.768Z,96525.53
2023-11-24T14:19:25.497Z,96530.72
2023-11-24T14:21:56.775Z,96521.34
2023-11-24T14:24:25.214Z,96519.28
2023-11-24T14:26:52.972Z,96518.41
2023-11-24T14:29:20.485Z,96533.28
2023-11-24T14:31:49.600Z,96535.91
2023-11-24T14:34:20.194Z,96523.75
2023-11-24T14:36:48.151Z,96526.41
2023-11-24T14:39:26.383Z,96529.06
2023-11-24T14:41:55.490Z,96538.88
2023-11-24T14:44:23.032Z,96527.88
2023-11-24T14:46:52.263Z,96537.56
2023-11-24T14:49:20.091Z,96540.25
2023-11-24T14:51:49.251Z,96552.72
2023-11-24T14:54:18.036Z,96559.66
2023-11-24T14:56:46.741Z,96618.34
2023-11-24T14:59:14.551Z,96614.53
2023-11-24T15:01:43.958Z,96616.50
2023-11-24T15:04:17.923Z,96599.16
2023-11-24T15:06:51.370Z,96598.56
2023-11-24T15:09:20.821Z,96584.97
2023-11-24T15:11:52.896Z,96573.56
2023-11-24T15:14:32.421Z,96569.06
2023-11-24T15:17:04.274Z,96561.09
2023-11-24T15:19:34.828Z,96574.38
2023-11-24T15:22:06.633Z,96578.28
2023-11-24T15:24:34.640Z,96583.81
2023-11-24T15:27:05.226Z,96573.00
2023-11-24T15:29:33.824Z,96591.72
2023-11-24T15:32:01.576Z,96599.69
2023-11-24T15:34:30.186Z,96589.94
2023-11-24T15:36:59.170Z,96584.13
2023-11-24T15:39:41.403Z,96586.06
2023-11-24T15:42:09.506Z,96591.31
2023-11-24T15:44:38.198Z,96589.19
2023-11-24T15:47:08.773Z,96591.88
2023-11-24T15:49:37.975Z,96598.69
2023-11-24T15:52:09.449Z,96584.63
2023-11-24T15:54:37.043Z,96590.34
2023-11-24T15:57:05.130Z,96586.69
2023-11-24T15:59:38.128Z,96595.97
2023-11-24T16:02:05.592Z,96589.81
2023-11-24T16:04:35.562Z,96587.09
2023-11-24T16:07:07.530Z,96583.53
2023-11-24T16:09:36.571Z,96584.72
2023-11-24T16:12:06.300Z,96585.75
2023-11-24T16:14:35.335Z,96586.59
2023-11-24T16:17:03.353Z,96590.03
2023-11-24T16:19:31.277Z,96591.47
2023-11-24T16:21:59.214Z,96600.00
2023-11-24T16:24:27.648Z,96613.94
2023-11-24T16:26:56.893Z,96609.38
2023-11-24T16:29:25.350Z,96604.91
2023-11-24T16:31:55.539Z,96606.09
2023-11-24T16:34:26.126Z,96620.16
2023-11-24T16:36:56.039Z,96604.75
2023-11-24T16:39:24.639Z,96613.91
2023-11-24T16:41:52.550Z,96617.84
2023-11-24T16:44:22.170Z,96621.75
2023-11-24T16:46:57.572Z,96622.97
2023-11-24T16:49:25.478Z,96622.97
2023-11-24T16:51:53.996Z,96625.88
2023-11-24T16:54:21.801Z,96633.59
2023-11-24T16:56:49.966Z,96625.72
2023-11-24T16:59:19.866Z,96622.63
2023-11-24T17:01:50.281Z,96613.41
2023-11-24T17:04:18.283Z,96625.56
2023-11-24T17:06:49.427Z,96616.16
2023-11-24T17:09:19.395Z,96616.84
2023-11-24T17:11:47.009Z,96612.53
2023-11-24T17:14:15.347Z,96616.38
2023-11-24T17:16:43.510Z,96622.22
2023-11-24T17:19:13.719Z,96619.88
2023-11-24T17:21:44.407Z,96624.31
2023-11-24T17:24:12.474Z,96609.31
2023-11-24T17:26:42.497Z,96607.50
2023-11-24T17:29:13.785Z,96610.09
2023-11-24T17:31:43.089Z,96608.41
2023-11-24T17:34:12.846Z,96612.19
2023-11-24T17:36:40.650Z,96612.13
2023-11-24T17:39:10.096Z,96608.22
2023-11-24T17:41:38.064Z,96616.59
2023-11-24T17:44:10.503Z,96609.28
2023-11-24T17:46:39.708Z,96602.09
2023-11-24T17:49:07.849Z,96602.47
2023-11-24T17:51:38.488Z,96593.84
2023-11-24T17:54:06.680Z,96603.09
2023-11-24T17:56:34.292Z,96606.09
2023-11-24T17:59:02.127Z,96592.91
2023-11-24T18:01:29.778Z,96600.75
2023-11-24T18:03:57.418Z,96586.00
2023-11-24T18:06:26.135Z,96586.56
2023-11-24T18:08:56.483Z,96600.00
2023-11-24T18:11:24.107Z,96599.47
2023-11-24T18:13:51.673Z,96609.75
2023-11-24T18:16:19.271Z,96606.78
2023-11-24T18:18:47.347Z,96607.25
2023-11-24T18:21:15.059Z,96606.31
2023-11-24T18:23:45.852Z,96601.38
2023-11-24T18:26:14.967Z,96601.91
2023-11-24T18:28:45.364Z,96594.88
2023-11-24T18:31:13.616Z,96599.72
2023-11-24T18:33:41.479Z,96599.00
2023-11-24T18:36:09.662Z,96596.09
2023-11-24T18:38:37.203Z,96599.50
2023-11-24T18:41:04.758Z,96606.06
2023-11-24T18:43:39.584Z,96594.47
2023-11-24T18:46:08.921Z,96596.75
2023-11-24T18:48:36.706Z,96589.03
2023-11-24T18:51:04.399Z,96598.09
2023-11-24T18:53:31.975Z,96588.09
2023-11-24T18:55:59.724Z,96586.91
2023-11-24T18:58:27.403Z,96595.25
2023-11-24T19:00:56.352Z,96597.63
2023-11-24T19:03:25.211Z,96604.69
2023-11-24T19:05:52.759Z,96603.69
2023-11-24T19:08:20.313Z,96615.91
2023-11-24T19:10:48.742Z,96598.47
2023-11-24T19:13:18.286Z,96595.03
2023-11-24T19:15:46.351Z,96580.22
2023-11-24T19:18:15.547Z,96583.53
2023-11-24T19:20:43.068Z,96587.22
2023-11-24T19:23:10.590Z,96587.41
2023-11-24T19:25:38.385Z,96584.16
2023-11-24T19:28:06.079Z,96584.31
2023-11-24T19:30:34.702Z,96577.00
2023-11-24T19:33:02.354Z,96585.97
2023-11-24T19:35:31.276Z,96593.69
2023-11-24T19:37:58.815Z,96583.81
2023-11-24T19:40:26.506Z,96583.81
2023-11-24T19:42:54.133Z,96585.47
2023-11-24T19:45:21.699Z,96589.28
2023-11-24T19:47:49.329Z,96571.97
2023-11-24T19:50:17.365Z,96570.34
2023-11-24T19:52:46.253Z,96574.25
2023-11-24T19:55:13.824Z,96569.63
2023-11-24T19:57:41.447Z,96580.47
2023-11-24T20:00:11.025Z,96565.47
2023-11-24T20:02:38.883Z,96560.19
2023-11-24T20:05:07.734Z,96569.25
2023-11-24T20:07:35.388Z,96567.09
2023-11-24T20:10:06.151Z,96565.31
2023-11-24T20:12:33.783Z,96560.66
2023-11-24T20:15:01.343Z,96560.06
2023-11-24T20:17:28.973Z,96561.47
2023-11-24T20:19:57.405Z,96565.06
2023-11-24T20:22:25.439Z,96562.00
2023-11-24T20:24:53.057Z,96557.69
2023-11-24T20:27:22.455Z,96561.66
2023-11-24T20:29:50.120Z,96565.84
2023-11-24T20:32:17.640Z,96572.19
2023-11-24T20:34:45.279Z,96572.34
2023-11-24T20:37:15.455Z,96573.63
2023-11-24T20:39:44.585Z,96570.72
2023-11-24T20:42:12.523Z,96563.75
2023-11-24T20:44:41.381Z,96557.91
2023-11-24T20:47:09.300Z,96549.53
2023-11-24T20:49:36.897Z,96558.56
2023-11-24T20:52:06.502Z,96553.13
2023-11-24T20:54:34.235Z,96539.38
2023-11-24T20:57:01.964Z,96529.91
2023-11-24T20:59:29.724Z,96540.59
2023-11-24T21:01:58.739Z,96528.50
2023-11-24T21:04:26.892Z,96544.84
2023-11-24T21:06:55.126Z,96545.25
2023-11-24T21:09:23.452Z,96549.78
2023-11-24T21:11:51.014Z,96549.00
2023-11-24T21:14:18.605Z,96551.59
2023-11-24T21:16:46.163Z,96557.41
2023-11-24T21:19:15.801Z,96545.00
2023-11-24T21:21:44.316Z,96537.59
2023-11-24T21:24:13.132Z,96537.38
2023-11-24T21:26:40.780Z,96522.66
2023-11-24T21:29:08.302Z,96525.03
2023-11-24T21:31:36.063Z,96519.59
2023-11-24T21:34:03.700Z,96522.38
2023-11-24T21:36:32.790Z,96509.00
2023-11-24T21:39:00.953Z,96516.66
2023-11-24T21:41:29.539Z,96526.84
2023-11-24T21:43:57.074Z,96511.38
2023-11-24T21:46:26.425Z,96520.56
2023-11-24T21:48:54.085Z,96518.13
2023-11-24T21:51:21.687Z,96511.22
2023-11-24T21:53:50.532Z,96502.50
2023-11-24T21:56:24.990Z,96507.31
2023-11-24T21:58:53.529Z,96492.91
2023-11-24T22:01:21.440Z,96499.88
2023-11-24T22:03:49.775Z,96494.94
2023-11-24T22:06:22.521Z,96489.41
2023-11-24T22:08:51.882Z,96495.91
2023-11-24T22:11:19.501Z,96488.66
2023-11-24T22:13:47.139Z,96495.72
2023-11-24T22:16:14.845Z,96496.56
2023-11-24T22:18:42.387Z,96489.78
2023-11-24T22:21:09.956Z,96486.19
2023-11-24T22:23:37.548Z,96482.16
2023-11-24T22:26:06.461Z,96480.69
2023-11-24T22:28:34.024Z,96481.00
2023-11-24T22:31:00.661Z,96483.34
2023-11-24T22:33:28.235Z,96482.28
2023-11-24T22:35:55.741Z,96482.88
2023-11-24T22:38:23.250Z,96480.22
2023-11-24T22:40:50.779Z,96478.03
2023-11-24T22:43:20.151Z,96471.06
2023-11-24T22:45:48.249Z,96465.28
2023-11-24T22:48:15.845Z,96460.00
2023-11-24T22:50:43.448Z,96471.41
2023-11-24T22:53:12.459Z,96466.69
2023-11-24T22:55:40.933Z,96473.66
2023-11-24T22:58:08.531Z,96473.09
2023-11-24T23:00:40.502Z,96465.25
2023-11-24T23:03:10.005Z,96469.25
2023-11-24T23:05:37.673Z,96458.97
2023-11-24T23:08:05.660Z,96449.19
2023-11-24T23:10:35.951Z,96458.81
2023-11-24T23:13:04.568Z,96456.78
2023-11-24T23:15:32.474Z,96463.66
2023-11-24T23:18:01.818Z,96457.81
2023-11-24T23:20:29.842Z,96452.13
2023-11-24T23:22:57.613Z,96446.47
2023-11-24T23:25:25.414Z,96439.38
2023-11-24T23:27:53.036Z,96460.94
2023-11-24T23:30:20.589Z,96451.41
2023-11-24T23:32:49.798Z,96473.19
2023-11-24T23:35:18.824Z,96458.34
2023-11-24T23:37:46.455Z,96451.19
2023-11-24T23:40:15.642Z,96441.19
2023-11-24T23:42:45.700Z,96457.06
2023-11-24T23:45:14.833Z,96437.56
2023-11-24T23:47:42.906Z,96484.19
2023-11-24T23:50:11.992Z,96493.38
2023-11-24T23:52:41.024Z,96477.56
2023-11-24T23:55:08.925Z,96472.19
2023-11-24T23:57:38.164Z,96489.41
